createdAt,value
2018-06-22T00:02:10.945Z,13.00
2018-06-22T00:04:39.413Z,12.80
2018-06-22T00:07:07.849Z,12.90
2018-06-22T00:09:36.861Z,12.90
2018-06-22T00:12:05.334Z,13.00
2018-06-22T00:14:33.789Z,13.00
2018-06-22T00:17:02.723Z,12.80
2018-06-22T00:19:31.152Z,12.70
2018-06-22T00:21:59.609Z,12.80
2018-06-22T00:24:29.021Z,12.80
2018-06-22T00:27:01.629Z,12.80
2018-06-22T00:29:30.381Z,12.80
2018-06-22T00:31:58.869Z,12.80
2018-06-22T00:36:55.477Z,12.90
2018-06-22T00:39:24.769Z,13.00
2018-06-22T00:41:54.093Z,13.00
2018-06-22T00:44:23.236Z,12.90
2018-06-22T00:46:51.661Z,13.00
2018-06-22T00:49:20.094Z,13.00
2018-06-22T00:51:49.081Z,12.90
2018-06-22T00:54:18.362Z,12.90
2018-06-22T00:56:47.249Z,12.90
2018-06-22T00:59:21.245Z,12.90
2018-06-22T01:01:49.668Z,12.80
2018-06-22T01:04:18.104Z,12.90
2018-06-22T01:06:47.145Z,12.90
2018-06-22T01:09:16.077Z,12.80
2018-06-22T01:11:45.555Z,12.80
2018-06-22T01:14:14.572Z,12.80
2018-06-22T01:16:43.140Z,12.80
2018-06-22T01:19:11.717Z,12.90
2018-06-22T01:24:08.871Z,13.00
2018-06-22T01:26:37.296Z,13.10
2018-06-22T01:29:11.269Z,13.00
2018-06-22T01:31:40.166Z,13.00
2018-06-22T01:34:09.760Z,13.00
2018-06-22T01:36:38.147Z,13.10
2018-06-22T01:39:09.018Z,13.00
2018-06-22T01:41:41.688Z,12.90
2018-06-22T01:44:10.126Z,13.00
2018-06-22T01:59:44.232Z,12.80
2018-06-22T02:02:16.973Z,12.20
2018-06-22T02:04:49.355Z,12.30
2018-06-22T02:07:17.794Z,12.50
2018-06-22T02:09:47.565Z,12.60
2018-06-22T02:12:16.030Z,12.70
2018-06-22T02:14:45.137Z,12.80
2018-06-22T02:17:13.560Z,12.90
2018-06-22T02:19:42.474Z,12.80
2018-06-22T02:22:11.029Z,12.90
2018-06-22T02:24:39.450Z,12.90
2018-06-22T02:27:08.378Z,12.90
2018-06-22T02:29:36.813Z,12.90
2018-06-22T02:32:06.105Z,12.90
2018-06-22T02:34:34.636Z,12.90
2018-06-22T02:37:03.908Z,12.90
2018-06-22T02:39:33.441Z,13.00
2018-06-22T02:42:01.965Z,13.00
2018-06-22T02:44:30.381Z,13.00
2018-06-22T02:47:05.414Z,12.90
2018-06-22T02:49:33.832Z,12.80
2018-06-22T02:52:02.741Z,12.90
2018-06-22T02:54:31.162Z,13.00
2018-06-22T02:57:00.171Z,13.00
2018-06-22T02:59:28.573Z,13.00
2018-06-22T03:01:58.276Z,13.10
2018-06-22T03:04:26.758Z,13.00
2018-06-22T03:06:55.211Z,13.10
2018-06-22T03:09:23.608Z,13.10
2018-06-22T03:11:53.930Z,13.00
2018-06-22T03:14:22.417Z,12.90
2018-06-22T03:16:50.892Z,12.90
2018-06-22T03:19:20.310Z,12.90
2018-06-22T03:21:49.465Z,13.00
2018-06-22T03:24:18.556Z,13.00
2018-06-22T03:26:47.906Z,13.00
2018-06-22T03:29:16.638Z,13.00
2018-06-22T03:31:45.102Z,13.00
2018-06-22T03:34:13.545Z,13.00
2018-06-22T03:36:42.101Z,13.10
2018-06-22T03:39:14.903Z,13.30
2018-06-22T03:41:44.173Z,13.20
2018-06-22T03:44:13.166Z,13.10
2018-06-22T03:46:42.052Z,13.10
2018-06-22T03:49:10.849Z,13.10
2018-06-22T03:51:44.165Z,13.00
2018-06-22T03:54:13.089Z,12.90
2018-06-22T03:56:42.120Z,13.00
2018-06-22T03:59:10.608Z,13.10
2018-06-22T04:01:39.012Z,13.10
2018-06-22T04:04:07.563Z,13.20
2018-06-22T04:06:36.043Z,13.30
2018-06-22T04:09:05.801Z,13.30
2018-06-22T04:11:34.852Z,13.30
2018-06-22T04:14:07.024Z,13.30
2018-06-22T04:16:36.067Z,13.40
2018-06-22T04:19:05.028Z,13.30
2018-06-22T04:21:33.491Z,13.30
2018-06-22T04:24:02.995Z,13.30
2018-06-22T04:26:31.554Z,13.30
2018-06-22T04:29:00.030Z,13.30
2018-06-22T04:31:28.714Z,13.30
2018-06-22T04:33:57.253Z,13.30
2018-06-22T04:36:25.707Z,13.20
2018-06-22T04:38:54.590Z,13.30
2018-06-22T04:41:23.674Z,13.30
2018-06-22T04:43:53.817Z,13.40
2018-06-22T04:46:22.290Z,13.30
2018-06-22T04:48:51.218Z,13.20
2018-06-22T04:51:19.675Z,13.00
2018-06-22T04:53:48.322Z,13.00
2018-06-22T04:56:16.783Z,12.90
2018-06-22T04:58:45.213Z,13.10
2018-06-22T05:01:14.805Z,13.10
2018-06-22T05:03:43.282Z,13.10
2018-06-22T05:06:11.661Z,13.10
2018-06-22T05:08:44.732Z,13.20
2018-06-22T05:11:13.196Z,13.10
2018-06-22T05:13:42.372Z,13.00
2018-06-22T05:16:11.455Z,13.00
2018-06-22T05:18:40.611Z,13.00
2018-06-22T05:21:10.363Z,12.90
2018-06-22T05:23:38.801Z,12.90
2018-06-22T05:26:08.218Z,12.90
2018-06-22T05:28:36.665Z,13.00
2018-06-22T05:31:05.758Z,13.00
2018-06-22T05:33:34.524Z,12.90
2018-06-22T05:36:02.949Z,12.80
2018-06-22T05:38:31.573Z,12.80
2018-06-22T05:41:00.102Z,12.80
2018-06-22T05:43:29.386Z,12.80
2018-06-22T05:45:58.405Z,12.80
2018-06-22T05:48:31.759Z,12.80
2018-06-22T05:51:00.223Z,12.70
2018-06-22T05:53:33.104Z,12.70
2018-06-22T05:56:02.311Z,12.60
2018-06-22T05:58:31.353Z,12.70
2018-06-22T06:01:00.477Z,12.70
2018-06-22T06:03:28.985Z,12.70
2018-06-22T06:05:57.815Z,12.50
2018-06-22T06:08:26.297Z,12.50
2018-06-22T06:10:54.805Z,12.60
2018-06-22T06:13:23.438Z,12.60
2018-06-22T06:15:51.989Z,12.70
2018-06-22T06:18:20.478Z,12.80
2018-06-22T06:20:48.950Z,12.80
2018-06-22T06:23:22.685Z,12.80
2018-06-22T06:25:51.425Z,12.90
2018-06-22T06:28:20.003Z,12.80
2018-06-22T06:30:48.784Z,12.70
2018-06-22T06:46:17.268Z,12.60
2018-06-22T06:48:45.777Z,11.80
2018-06-22T06:51:14.241Z,12.00
2018-06-22T06:53:42.641Z,12.20
2018-06-22T06:56:16.406Z,12.40
2018-06-22T06:58:44.838Z,12.50
2018-06-22T07:01:13.431Z,12.70
2018-06-22T07:03:43.517Z,12.80
2018-06-22T07:06:11.965Z,12.90
2018-06-22T07:08:40.716Z,12.80
2018-06-22T07:11:09.387Z,12.70
2018-06-22T07:13:37.809Z,12.70
2018-06-22T07:16:06.264Z,12.70
2018-06-22T07:18:34.724Z,12.60
2018-06-22T07:21:03.127Z,12.70
2018-06-22T07:23:31.654Z,12.80
2018-06-22T07:26:00.128Z,12.90
2018-06-22T07:28:28.547Z,13.00
2018-06-22T07:30:56.994Z,13.00
2018-06-22T07:33:25.411Z,13.00
2018-06-22T07:35:53.966Z,13.20
2018-06-22T07:38:22.955Z,13.30
2018-06-22T07:40:52.090Z,13.60
2018-06-22T07:43:20.525Z,13.70
2018-06-22T07:45:49.465Z,13.90
2018-06-22T07:48:18.181Z,14.00
2018-06-22T07:50:46.583Z,13.90
2018-06-22T07:53:15.106Z,13.70
2018-06-22T07:55:43.796Z,13.80
2018-06-22T07:58:12.265Z,13.60
2018-06-22T08:03:11.897Z,13.60
2018-06-22T08:05:40.693Z,13.70
2018-06-22T08:08:09.625Z,13.90
2018-06-22T08:10:38.449Z,13.90
2018-06-22T08:13:06.917Z,14.00
2018-06-22T08:15:35.796Z,14.00
2018-06-22T08:18:04.916Z,14.20
2018-06-22T08:20:33.367Z,14.40
2018-06-22T08:23:02.559Z,14.40
2018-06-22T08:25:31.022Z,14.30
2018-06-22T08:27:59.505Z,14.30
2018-06-22T08:30:28.152Z,14.30
2018-06-22T08:32:56.639Z,14.30
2018-06-22T08:35:25.081Z,14.40
2018-06-22T08:37:54.300Z,14.50
2018-06-22T08:40:24.268Z,14.60
2018-06-22T08:42:52.741Z,14.80
2018-06-22T08:45:21.601Z,15.20
2018-06-22T08:47:50.089Z,15.40
2018-06-22T08:50:19.061Z,15.40
2018-06-22T08:52:48.657Z,15.40
2018-06-22T08:55:18.424Z,15.20
2018-06-22T08:57:46.930Z,15.00
2018-06-22T09:00:15.869Z,14.80
2018-06-22T09:02:44.310Z,14.60
2018-06-22T09:05:13.484Z,14.60
2018-06-22T09:07:42.254Z,14.70
2018-06-22T09:10:57.492Z,15.00
2018-06-22T09:13:26.018Z,15.40
2018-06-22T09:16:01.334Z,15.60
2018-06-22T09:18:30.075Z,15.90
2018-06-22T09:20:58.530Z,16.40
2018-06-22T09:23:26.945Z,16.70
2018-06-22T09:25:55.451Z,16.70
2018-06-22T09:28:25.232Z,17.00
2018-06-22T09:30:53.661Z,17.00
2018-06-22T09:33:22.665Z,16.80
2018-06-22T09:35:51.075Z,16.50
2018-06-22T09:38:20.330Z,16.30
2018-06-22T09:40:49.842Z,16.00
2018-06-22T09:43:18.606Z,16.00
2018-06-22T09:45:47.371Z,16.10
2018-06-22T09:48:15.873Z,16.40
2018-06-22T09:50:45.609Z,17.00
2018-06-22T09:53:14.096Z,17.30
2018-06-22T09:55:43.585Z,17.60
2018-06-22T09:58:12.685Z,17.50
2018-06-22T10:00:50.358Z,17.40
2018-06-22T10:03:20.957Z,17.10
2018-06-22T10:05:49.708Z,17.40
2018-06-22T10:08:18.310Z,17.50
2018-06-22T10:10:47.118Z,17.60
2018-06-22T10:13:16.304Z,17.70
2018-06-22T10:15:49.941Z,17.80
2018-06-22T10:18:19.233Z,18.20
2018-06-22T10:20:47.728Z,18.60
2018-06-22T10:23:16.186Z,19.00
2018-06-22T10:25:45.153Z,19.20
2018-06-22T10:28:13.690Z,19.50
2018-06-22T10:33:25.340Z,20.00
2018-06-22T10:35:54.667Z,20.10
2018-06-22T10:38:23.197Z,19.90
2018-06-22T10:40:52.527Z,19.60
2018-06-22T10:43:25.501Z,19.20
2018-06-22T10:45:53.979Z,18.70
2018-06-22T10:48:22.440Z,18.30
2018-06-22T10:50:51.524Z,18.10
2018-06-22T10:53:20.984Z,17.90
2018-06-22T10:55:49.496Z,17.90
2018-06-22T10:58:17.992Z,18.10
2018-06-22T11:00:46.590Z,18.20
2018-06-22T11:16:20.091Z,18.20
2018-06-22T11:18:49.116Z,17.90
2018-06-22T11:21:18.138Z,18.20
2018-06-22T11:23:46.806Z,18.40
2018-06-22T11:26:15.613Z,18.70
2018-06-22T11:28:46.081Z,19.10
2018-06-22T11:31:14.676Z,19.40
2018-06-22T11:33:43.176Z,19.10
2018-06-22T11:36:13.527Z,18.90
2018-06-22T11:38:42.325Z,18.80
2018-06-22T11:41:10.850Z,18.80
2018-06-22T11:43:39.320Z,19.00
2018-06-22T11:46:07.782Z,19.20
2018-06-22T11:48:36.397Z,19.30
2018-06-22T11:51:05.255Z,19.40
2018-06-22T11:53:34.814Z,19.70
2018-06-22T11:56:04.137Z,19.90
